createdAt,value
2022-10-05T00:01:27.350Z,101354.34
2022-10-05T00:04:18.517Z,101346.56
2022-10-05T00:07:12.442Z,101347.28
2022-10-05T00:09:59.309Z,101342.41
2022-10-05T00:12:46.155Z,101338.22
2022-10-05T00:15:31.230Z,101335.97
2022-10-05T00:18:18.527Z,101330.44
2022-10-05T00:21:17.287Z,101321.75
2022-10-05T00:24:09.536Z,101316.06
2022-10-05T00:26:57.995Z,101319.72
2022-10-05T00:29:43.382Z,101315.66
2022-10-05T00:32:28.383Z,101303.53
2022-10-05T00:35:15.135Z,101312.31
2022-10-05T00:38:00.273Z,101310.78
2022-10-05T00:41:08.112Z,101298.38
2022-10-05T00:44:05.797Z,101297.13
2022-10-05T00:47:01.621Z,101297.81
2022-10-05T00:50:05.074Z,101306.59
2022-10-05T00:53:12.012Z,101306.31
2022-10-05T00:56:24.824Z,101304.50
2022-10-05T00:59:26.892Z,101305.66
2022-10-05T01:02:42.789Z,101301.75
2022-10-05T01:06:00.624Z,101297.56
2022-10-05T01:09:03.979Z,101307.00
2022-10-05T01:12:05.758Z,101312.59
2022-10-05T01:15:14.199Z,101321.09
2022-10-05T01:18:18.539Z,101307.19
2022-10-05T01:21:12.057Z,101311.19
2022-10-05T01:24:42.053Z,101307.44
2022-10-05T01:27:56.748Z,101312.47
2022-10-05T01:31:06.759Z,101309.50
2022-10-05T01:33:51.596Z,101318.16
2022-10-05T01:36:52.664Z,101320.78
2022-10-05T01:39:59.107Z,101310.94
2022-10-05T01:42:56.144Z,101308.72
2022-10-05T01:45:58.677Z,101301.03
2022-10-05T01:48:55.631Z,101305.22
2022-10-05T01:52:06.952Z,101288.09
2022-10-05T01:55:29.184Z,101294.22
2022-10-05T01:58:47.101Z,101281.66
2022-10-05T02:01:53.297Z,101277.63
2022-10-05T02:05:02.999Z,101283.06
2022-10-05T02:08:01.734Z,101270.00
2022-10-05T02:10:56.947Z,101268.63
2022-10-05T02:14:02.862Z,101268.47
2022-10-05T02:16:50.955Z,101269.31
2022-10-05T02:19:41.378Z,101264.41
2022-10-05T02:22:37.115Z,101267.22
2022-10-05T02:25:30.330Z,101254.53
2022-10-05T02:28:23.529Z,101256.34
2022-10-05T02:31:16.612Z,101258.44
2022-10-05T02:34:23.850Z,101268.75
2022-10-05T02:37:22.336Z,101249.53
2022-10-05T02:40:32.279Z,101253.16
2022-10-05T02:43:50.143Z,101253.69
2022-10-05T02:46:45.452Z,101258.13
2022-10-05T02:49:49.105Z,101259.66
2022-10-05T02:52:55.236Z,101255.63
2022-10-05T02:55:49.032Z,101260.50
2022-10-05T02:59:07.682Z,101252.03
2022-10-05T03:02:00.267Z,101249.94
2022-10-05T03:04:53.588Z,101247.31
2022-10-05T03:07:54.386Z,101249.81
2022-10-05T03:10:45.846Z,101256.03
2022-10-05T03:13:59.254Z,101247.13
2022-10-05T03:17:02.763Z,101246.06
2022-10-05T03:20:23.540Z,101243.81
2022-10-05T03:23:18.178Z,101238.50
2022-10-05T03:26:34.805Z,101238.94
2022-10-05T03:29:44.047Z,101240.47
2022-10-05T03:32:47.625Z,101239.63
2022-10-05T03:35:52.336Z,101237.97
2022-10-05T03:38:47.208Z,101245.19
2022-10-05T03:41:53.419Z,101246.97
2022-10-05T03:44:59.340Z,101237.53
2022-10-05T03:48:01.610Z,101240.31
2022-10-05T03:51:01.032Z,101234.34
2022-10-05T03:53:52.552Z,101229.31
2022-10-05T03:57:03.860Z,101234.50
2022-10-05T03:59:58.753Z,101225.28
2022-10-05T04:03:09.592Z,101221.81
2022-10-05T04:06:07.043Z,101216.97
2022-10-05T04:09:02.612Z,101209.16
2022-10-05T04:11:56.784Z,101206.41
2022-10-05T04:14:47.889Z,101208.75
2022-10-05T04:17:39.709Z,101207.09
2022-10-05T04:20:44.633Z,101199.56
2022-10-05T04:23:50.173Z,101197.22
2022-10-05T04:26:48.222Z,101204.16
2022-10-05T04:29:40.768Z,101198.59
2022-10-05T04:32:41.576Z,101194.13
2022-10-05T04:35:48.665Z,101199.97
2022-10-05T04:38:49.379Z,101200.09
2022-10-05T04:41:55.635Z,101195.06
2022-10-05T04:45:00.631Z,101206.19
2022-10-05T04:48:11.866Z,101195.16
2022-10-05T04:51:16.963Z,101204.09
2022-10-05T04:54:28.884Z,101202.13
2022-10-05T04:57:21.744Z,101208.88
2022-10-05T05:00:25.505Z,101204.81
2022-10-05T05:03:38.793Z,101204.38
2022-10-05T05:06:29.815Z,101207.03
2022-10-05T05:09:35.474Z,101200.72
2022-10-05T05:12:57.644Z,101205.91
2022-10-05T05:15:57.864Z,101206.78
2022-10-05T05:18:57.132Z,101201.94
2022-10-05T05:22:11.584Z,101203.19
2022-10-05T05:25:21.270Z,101215.03
2022-10-05T05:28:19.084Z,101208.75
2022-10-05T05:31:38.772Z,101212.91
2022-10-05T05:34:33.093Z,101217.94
2022-10-05T05:37:32.265Z,101218.44
2022-10-05T05:40:21.988Z,101211.22
2022-10-05T05:43:24.118Z,101207.03
2022-10-05T05:46:33.992Z,101213.84
2022-10-05T05:49:32.066Z,101210.88
2022-10-05T05:52:25.954Z,101217.31
2022-10-05T05:55:29.019Z,101205.44
2022-10-05T05:58:23.285Z,101207.41
2022-10-05T06:01:32.831Z,101218.84
2022-10-05T06:04:27.606Z,101208.09
2022-10-05T06:07:24.613Z,101216.06
2022-10-05T06:10:24.742Z,101219.00
2022-10-05T06:13:19.456Z,101219.38
2022-10-05T06:16:26.775Z,101219.19
2022-10-05T06:19:16.355Z,101220.41
2022-10-05T06:22:14.060Z,101220.03
2022-10-05T06:25:23.019Z,101222.09
2022-10-05T06:28:16.002Z,101215.28
2022-10-05T06:31:12.805Z,101221.47
2022-10-05T06:34:07.954Z,101222.38
2022-10-05T06:37:01.646Z,101226.78
2022-10-05T06:40:15.450Z,101217.44
2022-10-05T06:43:30.744Z,101214.38
2022-10-05T06:46:31.174Z,101215.44
2022-10-05T06:49:21.226Z,101217.56
2022-10-05T06:52:25.252Z,101212.81
2022-10-05T06:55:30.204Z,101213.19
2022-10-05T06:58:37.516Z,101210.59
2022-10-05T07:01:55.718Z,101221.44
2022-10-05T07:05:07.332Z,101217.47
2022-10-05T07:07:59.956Z,101214.16
2022-10-05T07:11:04.200Z,101215.53
2022-10-05T07:14:20.650Z,101220.22
2022-10-05T07:17:42.457Z,101216.25
2022-10-05T07:20:42.729Z,101214.31
2022-10-05T07:23:43.514Z,101206.84
2022-10-05T07:26:40.880Z,101212.06
2022-10-05T07:29:34.028Z,101214.06
2022-10-05T07:32:50.106Z,101215.94
2022-10-05T07:36:18.905Z,101207.94
2022-10-05T07:39:42.036Z,101209.59
2022-10-05T07:42:52.145Z,101214.13
2022-10-05T07:45:58.460Z,101205.78
2022-10-05T07:49:26.340Z,101209.25
2022-10-05T07:52:22.595Z,101212.75
2022-10-05T07:55:22.344Z,101204.75
2022-10-05T07:58:28.748Z,101213.59
2022-10-05T08:01:34.604Z,101213.75
2022-10-05T08:04:27.036Z,101215.88
2022-10-05T08:07:17.049Z,101212.41
2022-10-05T08:10:20.928Z,101217.56
2022-10-05T08:13:18.344Z,101220.88
2022-10-05T08:16:12.460Z,101224.66
2022-10-05T08:19:31.558Z,101226.16
2022-10-05T08:22:33.232Z,101217.47
2022-10-05T08:25:24.428Z,101220.41
2022-10-05T08:28:30.926Z,101214.09
2022-10-05T08:31:24.473Z,101209.75
2022-10-05T08:34:23.121Z,101212.41
2022-10-05T08:37:21.698Z,101216.41
2022-10-05T08:40:21.278Z,101211.38
2022-10-05T08:43:36.956Z,101217.78
2022-10-05T08:46:30.295Z,101208.41
2022-10-05T08:49:39.134Z,101207.16
2022-10-05T08:52:29.968Z,101202.50
2022-10-05T08:55:36.890Z,101203.03
2022-10-05T08:58:49.160Z,101193.22
2022-10-05T09:01:55.308Z,101201.81
2022-10-05T09:04:54.033Z,101201.16
2022-10-05T09:07:44.931Z,101197.44
2022-10-05T09:11:00.562Z,101202.16
2022-10-05T09:14:06.591Z,101202.22
2022-10-05T09:17:15.076Z,101194.38
2022-10-05T09:20:10.716Z,101193.88
2022-10-05T09:23:13.715Z,101192.25
2022-10-05T09:26:26.400Z,101193.94
2022-10-05T09:29:53.760Z,101190.38
2022-10-05T09:32:48.129Z,101186.09
2022-10-05T09:35:54.735Z,101172.81
2022-10-05T09:39:04.447Z,101179.56
2022-10-05T09:42:07.223Z,101178.75
2022-10-05T09:45:31.084Z,101173.22
2022-10-05T09:48:45.651Z,101167.88
2022-10-05T09:52:18.922Z,101163.31
2022-10-05T09:55:19.012Z,101163.66
2022-10-05T09:58:28.294Z,101160.13
2022-10-05T10:01:48.304Z,101153.97
2022-10-05T10:05:11.621Z,101141.44
2022-10-05T10:08:11.611Z,101146.22
2022-10-05T10:11:29.718Z,101149.75
2022-10-05T10:14:31.159Z,101151.53
2022-10-05T10:17:22.287Z,101148.13
2022-10-05T10:20:22.400Z,101153.88
2022-10-05T10:23:35.407Z,101148.13
2022-10-05T10:26:30.324Z,101151.81
2022-10-05T10:29:24.667Z,101144.50
2022-10-05T10:32:38.325Z,101142.22
2022-10-05T10:35:31.765Z,101141.28
2022-10-05T10:38:46.838Z,101126.25
2022-10-05T10:41:51.075Z,101122.91
2022-10-05T10:44:47.077Z,101121.16
2022-10-05T10:47:51.557Z,101125.44
2022-10-05T10:50:54.887Z,101120.84
2022-10-05T10:54:03.373Z,101117.75
2022-10-05T10:57:20.146Z,101108.94
2022-10-05T11:00:40.254Z,101116.34
2022-10-05T11:03:48.970Z,101105.00
2022-10-05T11:06:52.443Z,101115.78
2022-10-05T11:10:01.206Z,101105.31
2022-10-05T11:13:03.726Z,101093.44
2022-10-05T11:16:19.471Z,101089.88
2022-10-05T11:19:20.313Z,101087.91
2022-10-05T11:22:38.307Z,101089.31
2022-10-05T11:26:01.880Z,101086.47
2022-10-05T11:29:07.482Z,101079.63
2022-10-05T11:32:20.636Z,101075.56
2022-10-05T11:35:50.827Z,101068.91
2022-10-05T11:39:03.927Z,101065.22
2022-10-05T11:42:23.702Z,101055.53
2022-10-05T11:45:45.587Z,101052.31
2022-10-05T11:48:40.891Z,101049.16
2022-10-05T11:51:38.249Z,101039.81
2022-10-05T11:55:10.286Z,101034.84
2022-10-05T11:57:58.351Z,101029.41
2022-10-05T12:00:50.442Z,101033.84
2022-10-05T12:03:38.465Z,101019.69
2022-10-05T12:06:31.903Z,101025.25
2022-10-05T12:10:16.758Z,101013.19
2022-10-05T12:13:09.774Z,101005.41
2022-10-05T12:16:23.515Z,100999.56
2022-10-05T12:19:28.540Z,100992.59
2022-10-05T12:22:21.533Z,100990.72
2022-10-05T12:25:27.329Z,100991.91
2022-10-05T12:28:19.305Z,100992.44
2022-10-05T12:31:30.230Z,100982.56
2022-10-05T12:34:36.894Z,100975.84
2022-10-05T12:38:08.051Z,100971.22
2022-10-05T12:41:31.844Z,100967.50
2022-10-05T12:44:28.879Z,100965.41
2022-10-05T12:47:34.008Z,100956.34
2022-10-05T12:50:28.249Z,100947.28
2022-10-05T12:53:28.703Z,100942.06
2022-10-05T12:56:28.952Z,100943.28
2022-10-05T12:59:50.071Z,100941.78
2022-10-05T13:02:48.475Z,100945.34
2022-10-05T13:05:43.942Z,100933.44
2022-10-05T13:08:46.078Z,100927.97
2022-10-05T13:11:41.062Z,100928.09
2022-10-05T13:14:55.326Z,100921.78
2022-10-05T13:17:49.821Z,100932.66
2022-10-05T13:20:44.163Z,100917.34
2022-10-05T13:23:43.651Z,100925.53
2022-10-05T13:26:35.963Z,100916.22
2022-10-05T13:29:33.009Z,100910.06
2022-10-05T13:32:25.452Z,100905.94
2022-10-05T13:35:41.721Z,100905.53
2022-10-05T13:39:01.191Z,100896.47
2022-10-05T13:42:16.133Z,100887.25
2022-10-05T13:45:16.897Z,100885.59
2022-10-05T13:48:25.197Z,100886.25
2022-10-05T13:51:24.199Z,100886.78
2022-10-05T13:54:20.476Z,100884.72
2022-10-05T13:57:44.907Z,100875.00
2022-10-05T14:00:30.952Z,100882.84
2022-10-05T14:03:34.995Z,100883.06
2022-10-05T14:06:29.912Z,100879.19
2022-10-05T14:09:21.416Z,100890.09
2022-10-05T14:12:14.297Z,100870.44
2022-10-05T14:15:19.027Z,100870.81
2022-10-05T14:18:25.102Z,100873.63
2022-10-05T14:21:13.570Z,100867.41
2022-10-05T14:24:39.436Z,100881.97
2022-10-05T14:27:32.805Z,100876.34
2022-10-05T14:30:21.977Z,100873.81
2022-10-05T14:33:15.357Z,100874.25
2022-10-05T14:36:00.771Z,100874.78
2022-10-05T14:38:56.160Z,100875.47
2022-10-05T14:41:50.311Z,100878.84
2022-10-05T14:44:35.286Z,100875.63
2022-10-05T14:47:22.965Z,100870.69
2022-10-05T14:50:29.632Z,100871.13
2022-10-05T14:53:17.743Z,100870.84
2022-10-05T14:56:17.165Z,100883.59
2022-10-05T14:59:37.722Z,100887.91
2022-10-05T15:02:52.494Z,100884.28
2022-10-05T15:05:54.219Z,100884.88
2022-10-05T15:08:51.739Z,100895.06
2022-10-05T15:11:49.168Z,100895.09
2022-10-05T15:14:42.810Z,100884.53
2022-10-05T15:17:39.002Z,100890.94
2022-10-05T15:20:37.459Z,100887.75
2022-10-05T15:23:35.357Z,100882.59
2022-10-05T15:26:20.255Z,100893.09
2022-10-05T15:29:41.779Z,100897.72
2022-10-05T15:33:04.192Z,100900.03
2022-10-05T15:36:16.791Z,100909.13
2022-10-05T15:39:14.246Z,100902.31
2022-10-05T15:42:03.134Z,100906.81
2022-10-05T15:45:00.318Z,100913.31
2022-10-05T15:48:03.525Z,100913.56
2022-10-05T15:51:05.525Z,100907.78
2022-10-05T15:54:29.931Z,100914.00
2022-10-05T15:57:34.319Z,100921.91
2022-10-05T16:00:22.141Z,100917.84
2022-10-05T16:03:32.068Z,100920.19
2022-10-05T16:06:51.670Z,100936.19
2022-10-05T16:09:45.978Z,100936.25
2022-10-05T16:12:33.944Z,100939.78
2022-10-05T16:15:28.343Z,100941.28
2022-10-05T16:18:38.719Z,100951.41
2022-10-05T16:21:44.044Z,100958.44
2022-10-05T16:24:58.316Z,100970.22
2022-10-05T16:28:38.216Z,100971.72
2022-10-05T16:31:37.258Z,100974.84
2022-10-05T16:34:45.012Z,100983.31
2022-10-05T16:37:48.023Z,100983.31
2022-10-05T16:40:44.250Z,100993.03
2022-10-05T16:43:52.344Z,100996.94
2022-10-05T16:46:57.638Z,101005.47
2022-10-05T16:49:47.341Z,101003.97
2022-10-05T16:52:33.798Z,101008.72
2022-10-05T16:55:29.264Z,101009.75
2022-10-05T16:58:25.474Z,101014.72
2022-10-05T17:02:05.153Z,101021.53
2022-10-05T17:05:15.404Z,101027.34
2022-10-05T17:08:11.745Z,101028.09
2022-10-05T17:11:26.116Z,101039.06
2022-10-05T17:14:35.134Z,101047.50
2022-10-05T17:17:37.444Z,101048.38
2022-10-05T17:20:29.346Z,101050.84
2022-10-05T17:23:31.080Z,101054.44
2022-10-05T17:26:34.359Z,101062.69
2022-10-05T17:29:24.754Z,101066.03
2022-10-05T17:32:33.354Z,101063.16
2022-10-05T17:35:21.988Z,101071.41
2022-10-05T17:38:41.627Z,101079.47
2022-10-05T17:41:30.196Z,101079.47
2022-10-05T17:44:19.457Z,101091.25
2022-10-05T17:47:08.222Z,101105.94
2022-10-05T17:50:18.381Z,101094.38
2022-10-05T17:53:54.668Z,101106.75
2022-10-05T17:56:48.889Z,101116.88
2022-10-05T17:59:44.545Z,101143.94
2022-10-05T18:02:37.465Z,101147.47
2022-10-05T18:05:27.553Z,101153.63
2022-10-05T18:08:16.459Z,101156.69
2022-10-05T18:11:33.356Z,101159.09
2022-10-05T18:14:24.372Z,101160.22
2022-10-05T18:17:13.670Z,101162.69
2022-10-05T18:20:23.774Z,101164.88
2022-10-05T18:23:09.526Z,101174.69
2022-10-05T18:26:32.550Z,101181.44
2022-10-05T18:30:04.747Z,101174.47
2022-10-05T18:33:27.930Z,101180.47
2022-10-05T18:36:27.319Z,101186.66
2022-10-05T18:39:34.296Z,101184.22
2022-10-05T18:42:27.026Z,101173.69
2022-10-05T18:45:23.740Z,101165.25
2022-10-05T18:48:20.895Z,101168.34
2022-10-05T18:51:27.098Z,101167.25
2022-10-05T18:54:37.099Z,101172.84
2022-10-05T18:57:40.369Z,101168.66
2022-10-05T19:00:39.845Z,101164.28
2022-10-05T19:03:43.501Z,101163.03
2022-10-05T19:06:31.468Z,101160.31
2022-10-05T19:09:34.752Z,101167.47
2022-10-05T19:12:44.678Z,101179.19
2022-10-05T19:16:08.233Z,101180.63
2022-10-05T19:19:12.113Z,101185.16
2022-10-05T19:22:06.361Z,101188.00
2022-10-05T19:25:28.711Z,101199.91
2022-10-05T19:28:27.407Z,101206.88
2022-10-05T19:31:12.507Z,101190.72
2022-10-05T19:34:28.413Z,101198.16
2022-10-05T19:37:24.018Z,101212.53
2022-10-05T19:40:55.402Z,101218.59
2022-10-05T19:43:43.163Z,101214.31
2022-10-05T19:46:43.259Z,101218.16
2022-10-05T19:49:42.156Z,101217.50
2022-10-05T19:52:44.177Z,101227.34
2022-10-05T19:55:34.487Z,101226.75
2022-10-05T19:58:28.754Z,101227.72
2022-10-05T20:01:25.826Z,101238.34
2022-10-05T20:04:11.408Z,101237.41
2022-10-05T20:06:56.620Z,101230.91
2022-10-05T20:09:52.864Z,101240.59
2022-10-05T20:12:57.356Z,101243.78
2022-10-05T20:16:25.091Z,101237.81
2022-10-05T20:19:54.432Z,101255.00
2022-10-05T20:22:46.125Z,101253.94
2022-10-05T20:25:31.832Z,101267.69
2022-10-05T20:28:30.581Z,101265.69
2022-10-05T20:31:20.112Z,101261.84
2022-10-05T20:34:05.222Z,101260.00
2022-10-05T20:36:51.239Z,101257.38
2022-10-05T20:39:36.063Z,101264.22
2022-10-05T20:42:22.850Z,101273.34
2022-10-05T20:45:08.388Z,101268.41
2022-10-05T20:47:53.070Z,101281.25
2022-10-05T20:50:37.899Z,101276.06
2022-10-05T20:53:22.715Z,101280.91
2022-10-05T20:56:07.597Z,101289.59
2022-10-05T20:58:52.484Z,101304.22
2022-10-05T21:01:37.282Z,101310.72
2022-10-05T21:04:30.217Z,101318.09
2022-10-05T21:07:20.940Z,101333.47
2022-10-05T21:10:06.561Z,101342.59
2022-10-05T21:12:51.904Z,101338.25
2022-10-05T21:15:37.688Z,101324.66
2022-10-05T21:18:22.519Z,101342.84
2022-10-05T21:21:08.001Z,101343.22
2022-10-05T21:23:54.673Z,101330.34
2022-10-05T21:26:44.165Z,101339.41
2022-10-05T21:29:29.312Z,101337.31
2022-10-05T21:32:14.329Z,101340.38
2022-10-05T21:34:59.215Z,101336.84
2022-10-05T21:37:43.940Z,101340.91
2022-10-05T21:40:28.899Z,101339.66
2022-10-05T21:43:14.151Z,101349.38
2022-10-05T21:45:59.439Z,101339.66
2022-10-05T21:48:44.426Z,101345.47
2022-10-05T21:51:29.344Z,101338.44
2022-10-05T21:54:18.114Z,101351.22
2022-10-05T21:57:02.998Z,101356.84
2022-10-05T21:59:48.006Z,101356.94
2022-10-05T22:02:33.322Z,101363.41
2022-10-05T22:05:18.497Z,101373.72
2022-10-05T22:08:04.803Z,101378.03
2022-10-05T22:10:50.153Z,101386.69
2022-10-05T22:13:44.453Z,101392.91
2022-10-05T22:16:32.745Z,101390.22
2022-10-05T22:19:20.002Z,101413.50
2022-10-05T22:22:07.582Z,101420.53
2022-10-05T22:24:56.424Z,101437.06
2022-10-05T22:27:41.640Z,101465.66
2022-10-05T22:30:27.274Z,101487.47
2022-10-05T22:33:13.125Z,101525.69
2022-10-05T22:35:59.276Z,101523.59
2022-10-05T22:38:46.368Z,101544.91
2022-10-05T22:41:31.079Z,101551.00
2022-10-05T22:44:16.301Z,101559.72
2022-10-05T22:47:02.827Z,101553.94
2022-10-05T22:49:47.884Z,101551.41
2022-10-05T22:52:32.724Z,101548.56
2022-10-05T22:55:17.861Z,101555.75
2022-10-05T22:58:03.192Z,101558.41
2022-10-05T23:00:58.045Z,101547.56
2022-10-05T23:03:43.669Z,101549.75
2022-10-05T23:06:30.399Z,101551.38
2022-10-05T23:09:15.543Z,101538.75
2022-10-05T23:12:01.060Z,101552.75
2022-10-05T23:14:45.735Z,101558.09
2022-10-05T23:17:33.363Z,101548.06
2022-10-05T23:20:18.371Z,101568.44
2022-10-05T23:23:03.291Z,101554.91
2022-10-05T23:25:48.171Z,101554.91
2022-10-05T23:28:33.754Z,101576.75
2022-10-05T23:31:21.980Z,101587.78
2022-10-05T23:34:06.922Z,101588.75
2022-10-05T23:36:51.700Z,101590.94
2022-10-05T23:39:36.479Z,101607.97
2022-10-05T23:42:21.431Z,101615.81
2022-10-05T23:45:08.394Z,101619.63
2022-10-05T23:47:53.665Z,101622.66
2022-10-05T23:50:38.752Z,101627.47
2022-10-05T23:53:23.765Z,101643.50
2022-10-05T23:56:09.008Z,101655.19
2022-10-05T23:58:53.840Z,101691.19
